Time;durP1;ratioP1;P1;durP2;ratioP2;P2;SDS_P1;SDS_P2;PMS_P1;PMS_P2;Temp;Humidity;BMP_temperature;BMP_pressure;BME280_temperature;BME280_humidity;BME280_pressure;Samples;Min_cycle;Max_cycle;Signal;HPM_P1;HPM_P2
2024/04/04 00:03:52;;;;;;;11.20;6.50;;;;;;;10.71;81.56;99729.60;126426;1295;5410624;-65
2024/04/04 00:07:53;;;;;;;9.80;6.40;;;;;;;10.71;81.84;99729.98;129071;1301;114841;-64
2024/04/04 00:11:46;;;;;;;;;;;;;;;;;;;;;
2024/04/04 00:20:14;;;;;;;;;;;;;;;;;;;;;
2024/04/04 00:24:18;;;;;;;9.20;5.80;;;;;;;10.75;81.81;99720.45;128119;1298;114978;-65
2024/04/04 00:28:20;;;;;;;8.50;6.20;;;;;;;10.73;81.87;99714.50;123406;1289;5444107;-64
2024/04/04 00:36:23;;;;;;;8.00;5.10;;;;;;;10.72;82.12;99714.39;125256;1311;114883;-64
2024/04/04 00:40:25;;;;;;;7.90;5.50;;;;;;;10.71;82.45;99713.16;124612;1327;114904;-65
2024/04/04 00:44:26;;;;;;;9.60;5.40;;;;;;;10.70;82.04;99710.21;123894;1333;129726;-64
2024/04/04 01:01:00;;;;;;;8.70;4.70;;;;;;;10.63;81.88;99696.88;126977;1286;114970;-63
2024/04/04 01:05:01;;;;;;;6.30;4.60;;;;;;;10.59;82.30;99703.73;122380;1297;5419948;-65
2024/04/04 01:09:03;;;;;;;7.70;4.60;;;;;;;10.56;82.15;99706.38;125586;1321;114994;-65
2024/04/04 01:33:20;;;;;;;7.70;2.90;;;;;;;10.44;82.35;99694.20;125313;1305;114942;-65
2024/04/04 01:41:55;;;;;;;5.80;2.90;;;;;;;10.38;82.72;99690.09;125739;1311;642477;-64
2024/04/04 01:50:05;;;;;;;5.70;3.10;;;;;;;10.35;83.04;99692.77;126470;1290;115000;-65
2024/04/04 01:58:38;;;;;;;5.20;2.90;;;;;;;10.38;82.88;99697.42;125478;1311;638836;-65
2024/04/04 02:02:41;;;;;;;6.30;3.40;;;;;;;10.37;83.21;99698.16;127800;1283;129110;-64
2024/04/04 02:06:45;;;;;;;6.80;3.00;;;;;;;10.38;83.48;99696.19;126864;1308;114992;-64
2024/04/04 02:10:47;;;;;;;6.10;2.40;;;;;;;10.38;83.20;99699.03;122004;1317;5636483;-66
2024/04/04 02:14:48;;;;;;;5.60;2.70;;;;;;;10.39;83.25;99704.02;125436;1315;115047;-66
2024/04/04 02:17:53;;;;;;;6.50;3.40;;;;;;;10.39;83.08;99707.55;125890;1262;114995;31
2024/04/04 02:20:55;;;;;;;6.50;2.50;;;;;;;10.40;83.48;99708.07;128855;1274;126637;-66
2024/04/04 02:23:56;;;;;;;4.50;2.40;;;;;;;10.39;83.38;99703.27;128696;1270;114818;-65
2024/04/04 02:26:58;;;;;;;4.50;3.30;;;;;;;10.39;83.42;99701.16;128974;1271;114822;-66
2024/04/04 02:30:01;;;;;;;4.80;3.20;;;;;;;10.38;83.67;99699.39;128816;1270;114791;-65
2024/04/04 02:33:04;;;;;;;6.30;3.00;;;;;;;10.37;83.54;99695.14;128551;1274;114828;-64
2024/04/04 02:36:06;;;;;;;5.80;2.60;;;;;;;10.36;83.70;99684.66;128766;1271;114787;-65
2024/04/04 02:39:13;;;;;;;4.40;2.60;;;;;;;10.34;83.46;99683.52;128693;1273;115461;-66
2024/04/04 02:42:15;;;;;;;6.40;3.20;;;;;;;10.31;83.49;99687.96;128489;1277;116537;-65
2024/04/04 02:45:18;;;;;;;4.80;2.50;;;;;;;10.29;83.81;99685.45;128831;1292;114776;-66
2024/04/04 02:48:20;;;;;;;3.70;2.40;;;;;;;10.27;83.57;99684.85;128897;1273;114865;-66
2024/04/04 02:51:22;;;;;;;5.90;2.70;;;;;;;10.25;83.62;99687.27;128907;1274;114761;-65
2024/04/04 02:54:24;;;;;;;5.80;2.80;;;;;;;10.23;83.67;99685.98;128540;1270;114853;-65
2024/04/04 02:57:25;;;;;;;5.40;2.50;;;;;;;10.20;83.82;99689.17;128759;1292;114835;-66
2024/04/04 03:00:27;;;;;;;5.00;3.20;;;;;;;10.17;83.63;99689.52;128888;1292;114773;-65
2024/04/04 03:03:29;;;;;;;4.40;2.50;;;;;;;10.14;83.90;99687.73;128761;1273;114845;-65
2024/04/04 03:06:31;;;;;;;5.40;2.80;;;;;;;10.12;84.01;99688.40;128802;1273;114864;-65
2024/04/04 03:09:33;;;;;;;5.40;2.60;;;;;;;10.10;83.89;99694.55;129423;1265;115372;-65
2024/04/04 03:12:34;;;;;;;4.60;2.80;;;;;;;10.09;84.24;99695.51;129087;1264;116279;-66
2024/04/04 03:15:37;;;;;;;5.70;2.80;;;;;;;10.08;84.01;99694.87;129235;1267;114823;-65
2024/04/04 03:18:38;;;;;;;5.80;3.80;;;;;;;10.06;84.30;99693.52;129312;1267;116374;-65
2024/04/04 03:21:43;;;;;;;9.80;3.90;;;;;;;10.05;84.05;99692.17;129180;1269;128862;-65
2024/04/04 03:24:45;;;;;;;7.40;4.50;;;;;;;10.02;84.29;99691.81;129436;1279;114782;-65
2024/04/04 03:27:47;;;;;;;6.90;4.10;;;;;;;9.99;84.38;99693.02;129378;1267;114844;-65
2024/04/04 03:30:49;;;;;;;5.60;3.40;;;;;;;9.97;84.19;99692.77;129382;1264;114754;-66
2024/04/04 03:33:53;;;;;;;7.50;3.50;;;;;;;9.94;84.20;99694.73;129006;1268;114831;-65
2024/04/04 03:36:55;;;;;;;8.60;3.40;;;;;;;9.91;84.40;99695.26;129323;1270;114867;-66
2024/04/04 03:39:57;;;;;;;6.00;3.30;;;;;;;9.90;84.34;99701.42;129320;1264;114845;-65
2024/04/04 03:42:58;;;;;;;5.10;2.40;;;;;;;9.87;84.41;99702.79;129443;1268;114822;-65
2024/04/04 03:46:04;;;;;;;5.10;3.20;;;;;;;9.85;84.41;99707.75;129371;1267;114796;-65
2024/04/04 03:49:06;;;;;;;7.20;3.00;;;;;;;9.83;84.56;99706.23;129550;1264;115362;-66
2024/04/04 03:52:08;;;;;;;5.20;2.90;;;;;;;9.81;84.46;99707.07;129520;1267;114787;-64
2024/04/04 03:55:09;;;;;;;4.30;2.80;;;;;;;9.80;84.65;99702.17;129099;1286;114838;-65
2024/04/04 03:58:12;;;;;;;5.10;3.60;;;;;;;9.77;84.59;99699.11;128936;1270;115202;-65
2024/04/04 04:01:14;;;;;;;4.70;2.90;;;;;;;9.75;84.64;99701.91;129105;1267;115506;-65
2024/04/04 04:04:15;;;;;;;6.00;3.10;;;;;;;9.73;84.78;99709.46;129124;1266;114768;-65
2024/04/04 04:07:17;;;;;;;7.20;4.80;;;;;;;9.72;84.76;99717.55;129130;1277;115012;-66
2024/04/04 04:10:19;;;;;;;6.70;3.10;;;;;;;9.72;84.91;99712.92;129374;1286;114852;-65
2024/04/04 04:13:21;;;;;;;7.40;3.30;;;;;;;9.72;85.02;99711.48;129079;1267;114768;-66
2024/04/04 04:16:22;;;;;;;6.40;3.50;;;;;;;9.73;85.08;99712.52;129360;1282;114786;-66
2024/04/04 04:19:24;;;;;;;6.20;3.60;;;;;;;9.75;85.10;99714.55;129326;1268;116324;-66
2024/04/04 04:22:26;;;;;;;4.80;3.30;;;;;;;9.77;85.02;99712.67;129416;1267;114786;-65
2024/04/04 04:25:28;;;;;;;5.90;3.60;;;;;;;9.79;85.22;99711.83;129121;1286;126782;-65
2024/04/04 04:28:29;;;;;;;7.30;3.60;;;;;;;9.81;85.14;99712.23;129360;1264;114815;-66
2024/04/04 04:31:33;;;;;;;6.40;3.60;;;;;;;9.83;85.14;99713.39;129353;1278;114733;-66
2024/04/04 04:34:35;;;;;;;5.60;3.50;;;;;;;9.85;85.19;99710.06;129770;1259;115365;-66
2024/04/04 04:37:37;;;;;;;5.30;3.60;;;;;;;9.86;85.10;99709.98;129656;1263;115135;-66
2024/04/04 04:40:41;;;;;;;6.10;3.30;;;;;;;9.88;85.00;99709.52;129799;1264;114801;-65
2024/04/04 04:43:44;;;;;;;6.30;3.90;;;;;;;9.92;85.14;99716.98;129810;1259;114770;-65
2024/04/04 04:46:46;;;;;;;9.60;4.30;;;;;;;9.98;85.35;99716.81;129787;1264;128901;-65
2024/04/04 04:49:51;;;;;;;5.90;3.80;;;;;;;10.05;85.35;99719.63;129742;1259;114843;-65
2024/04/04 04:52:53;;;;;;;;;;;;;;;10.13;85.27;99716.70;129441;1281;114767;-65
2024/04/04 04:55:55;;;;;;;7.00;4.20;;;;;;;10.22;85.32;99717.80;129476;1264;114839;-65
2024/04/04 04:58:57;;;;;;;6.20;4.00;;;;;;;10.31;85.25;99721.55;129882;1263;114774;-67
2024/04/04 05:01:59;;;;;;;6.60;3.90;;;;;;;10.39;85.20;99723.81;129398;1259;114783;-66
2024/04/04 05:05:14;;;;;;;5.10;3.10;;;;;;;10.44;85.09;99721.19;129706;1264;114753;-66
2024/04/04 05:08:16;;;;;;;6.20;3.90;;;;;;;10.49;84.95;99724.65;129593;1281;114742;-66
2024/04/04 05:11:18;;;;;;;5.40;3.60;;;;;;;10.56;85.28;99718.36;129670;1264;114778;-66
2024/04/04 05:14:19;;;;;;;9.50;4.00;;;;;;;10.62;84.96;99724.25;129730;1261;114734;-66
2024/04/04 05:17:21;;;;;;;6.00;3.60;;;;;;;10.68;84.56;99730.52;129718;1259;114773;-66
2024/04/04 05:20:23;;;;;;;5.10;2.90;;;;;;;10.73;84.56;99723.05;129680;1259;114802;-67
2024/04/04 05:23:25;;;;;;;7.70;3.30;;;;;;;10.80;84.28;99719.27;129777;1264;114837;-66
2024/04/04 05:26:27;;;;;;;7.50;3.60;;;;;;;10.88;84.54;99723.40;129800;1261;129003;-66
2024/04/04 05:29:29;;;;;;;7.90;4.20;;;;;;;11.02;84.55;99720.47;129612;1262;114778;-67
2024/04/04 05:32:30;;;;;;;8.60;3.40;;;;;;;11.16;84.44;99718.67;129713;1261;114839;-65
2024/04/04 05:35:35;;;;;;;8.90;3.30;;;;;;;11.32;84.19;99717.39;129853;1261;114790;-66
2024/04/04 05:38:37;;;;;;;6.20;3.60;;;;;;;11.49;84.32;99717.36;129536;1267;114773;-66
2024/04/04 05:41:41;;;;;;;6.40;3.90;;;;;;;11.70;84.23;99721.94;129793;1281;114738;-66
2024/04/04 05:44:43;;;;;;;9.30;3.50;;;;;;;11.94;84.23;99725.27;129765;1259;114756;-66
2024/04/04 05:47:46;;;;;;;7.10;3.00;;;;;;;12.11;83.58;99729.23;129923;1261;114836;-67
2024/04/04 05:50:48;;;;;;;5.30;3.70;;;;;;;12.20;82.78;99734.20;129849;1281;114815;-66
2024/04/04 05:53:49;;;;;;;5.90;3.10;;;;;;;12.29;82.48;99730.23;129750;1281;114751;-67
2024/04/04 05:56:51;;;;;;;7.40;3.40;;;;;;;12.40;82.44;99739.90;129801;1259;114798;-66
2024/04/04 05:59:56;;;;;;;9.70;3.50;;;;;;;12.46;81.79;99741.46;129791;1261;114793;-67
2024/04/04 06:02:58;;;;;;;;;;;;;;;12.54;81.74;99747.58;129297;1261;114861;-66
2024/04/04 06:06:01;;;;;;;8.50;2.90;;;;;;;12.56;81.39;99744.52;129683;1259;114752;-65
2024/04/04 06:09:03;;;;;;;4.70;2.40;;;;;;;12.62;80.81;99735.22;129788;1259;114883;-65
2024/04/04 06:12:06;;;;;;;4.70;2.80;;;;;;;12.71;80.87;99738.88;129650;1259;114822;-65
2024/04/04 06:15:08;;;;;;;7.30;3.40;;;;;;;12.88;80.92;99749.77;129385;1261;114792;-65
2024/04/04 06:18:10;;;;;;;7.30;3.40;;;;;;;13.06;80.61;99750.00;129424;1275;114734;-66
2024/04/04 06:21:13;;;;;;;6.50;3.80;;;;;;;13.19;80.18;99753.75;129422;1281;114912;-65
2024/04/04 06:24:14;;;;;;;10.00;4.20;;;;;;;13.29;79.71;99753.38;129479;1271;114754;-66
2024/04/04 06:27:16;;;;;;;6.80;3.90;;;;;;;13.35;79.34;99760.70;129428;1260;128723;-66
2024/04/04 06:30:19;;;;;;;9.40;4.50;;;;;;;13.41;79.35;99758.36;129793;1257;114834;-66
2024/04/04 06:33:21;;;;;;;6.70;4.10;;;;;;;13.45;78.72;99758.79;129727;1261;115143;-66
2024/04/04 06:36:23;;;;;;;8.10;4.30;;;;;;;13.46;78.54;99758.19;129738;1257;114736;-66
2024/04/04 06:39:24;;;;;;;10.70;4.90;;;;;;;13.46;78.27;99764.29;129751;1262;114815;-66
2024/04/04 06:42:26;;;;;;;10.20;4.90;;;;;;;13.44;78.13;99771.09;129731;1258;114847;-65
2024/04/04 06:45:28;;;;;;;8.90;4.30;;;;;;;13.46;78.20;99772.52;129750;1262;114811;-65
2024/04/04 06:48:30;;;;;;;6.80;4.00;;;;;;;13.48;77.83;99770.60;129164;1275;128673;-66
2024/04/04 06:51:32;;;;;;;9.00;4.70;;;;;;;13.52;77.55;99768.54;129819;1261;115362;-67
2024/04/04 06:54:34;;;;;;;8.70;3.40;;;;;;;13.63;77.75;99759.71;129809;1261;114849;-66
2024/04/04 06:57:40;;;;;;;6.20;2.80;;;;;;;13.80;77.42;99766.52;129561;1261;114837;-66
2024/04/04 07:00:44;;;;;;;4.00;3.00;;;;;;;14.06;77.40;99770.08;129812;1259;114858;-66
2024/04/04 07:03:46;;;;;;;8.90;3.20;;;;;;;14.32;76.98;99773.72;129692;1263;115404;-66
2024/04/04 07:06:48;;;;;;;5.20;3.30;;;;;;;14.51;76.45;99775.96;129855;1261;114761;-67
2024/04/04 07:09:49;;;;;;;6.00;3.40;;;;;;;14.64;76.26;99773.19;129727;1261;129097;-67
2024/04/04 07:12:51;;;;;;;4.50;2.90;;;;;;;14.72;75.32;99782.36;129690;1261;114853;-66
2024/04/04 07:16:01;;;;;;;6.80;3.30;;;;;;;14.81;75.39;99780.22;129958;1261;114782;-66
2024/04/04 07:19:02;;;;;;;6.40;3.70;;;;;;;14.96;75.16;99780.89;130027;1261;114668;-66
2024/04/04 07:22:04;;;;;;;4.80;3.50;;;;;;;15.15;74.75;99778.40;129749;1281;114881;-66
2024/04/04 07:25:07;;;;;;;7.50;3.60;;;;;;;15.31;74.46;99778.73;129921;1261;114830;-66
2024/04/04 07:28:09;;;;;;;3.80;3.20;;;;;;;15.52;74.13;99780.92;129566;1265;116566;-67
2024/04/04 07:31:11;;;;;;;5.00;3.20;;;;;;;15.64;73.35;99783.02;129854;1261;115199;-67
2024/04/04 07:34:13;;;;;;;5.30;3.30;;;;;;;15.73;73.31;99784.10;129750;1258;114952;-66
2024/04/04 07:37:15;;;;;;;4.90;3.00;;;;;;;15.92;73.37;99786.38;129577;1267;114938;-66
2024/04/04 07:40:16;;;;;;;4.60;3.10;;;;;;;16.10;72.85;99789.82;129746;1281;114791;-66
2024/04/04 07:43:18;;;;;;;4.80;2.90;;;;;;;16.33;72.53;99789.95;129889;1259;114722;-67
2024/04/04 07:46:20;;;;;;;5.60;3.60;;;;;;;16.55;71.96;99793.17;129801;1259;114743;-67
2024/04/04 07:49:22;;;;;;;3.80;2.90;;;;;;;16.79;71.64;99789.80;129811;1257;114829;-66
2024/04/04 07:52:24;;;;;;;5.80;3.20;;;;;;;17.14;71.48;99793.36;129790;1259;114784;-67
2024/04/04 07:55:25;;;;;;;4.40;3.30;;;;;;;17.63;70.54;99797.33;129548;1261;128071;-67
2024/04/04 07:58:27;;;;;;;5.90;3.00;;;;;;;17.85;69.81;99796.83;129694;1257;114827;-67
2024/04/04 08:01:29;;;;;;;4.80;3.60;;;;;;;17.97;69.51;99797.05;129860;1261;115376;-67
2024/04/04 08:04:31;;;;;;;3.50;2.40;;;;;;;18.01;68.21;99799.12;129819;1261;114954;-66
2024/04/04 08:07:36;;;;;;;3.20;2.70;;;;;;;17.95;67.93;99805.71;129739;1258;114827;-66
2024/04/04 08:10:38;;;;;;;2.80;2.30;;;;;;;18.01;67.83;99809.23;129592;1281;115016;-66
2024/04/04 08:13:40;;;;;;;4.10;3.50;;;;;;;18.05;67.20;99805.38;129827;1259;114765;-66
2024/04/04 08:16:43;;;;;;;4.20;2.50;;;;;;;18.12;66.70;99799.70;129768;1258;114776;-67
2024/04/04 08:19:44;;;;;;;3.40;2.60;;;;;;;18.26;66.77;99794.89;129510;1267;114970;-67
2024/04/04 08:22:46;;;;;;;4.00;2.50;;;;;;;18.51;66.51;99796.94;129987;1261;114801;-67
2024/04/04 08:25:58;;;;;;;3.20;2.60;;;;;;;18.78;66.10;99797.59;129821;1264;114749;-67
2024/04/04 08:29:00;;;;;;;3.40;2.70;;;;;;;19.00;65.70;99791.98;129568;1264;114765;-67
2024/04/04 08:32:03;;;;;;;3.20;2.60;;;;;;;19.24;65.38;99800.48;129769;1261;114809;-67
2024/04/04 08:35:09;;;;;;;2.90;1.70;;;;;;;19.39;64.77;99802.09;129704;1259;114792;-67
2024/04/04 08:38:12;;;;;;;2.10;1.30;;;;;;;19.37;64.34;99809.38;129807;1275;114778;-68
2024/04/04 08:41:17;;;;;;;2.20;1.10;;;;;;;19.20;63.78;99816.69;129840;1264;115277;-67
2024/04/04 08:44:19;;;;;;;2.80;1.00;;;;;;;19.01;63.73;99822.47;129446;1264;114847;-67
2024/04/04 08:47:23;;;;;;;4.20;1.20;;;;;;;18.86;64.01;99824.33;129682;1275;114754;-68
2024/04/04 08:50:25;;;;;;;1.90;1.20;;;;;;;18.71;64.25;99826.98;129654;1281;114830;-68
2024/04/04 08:53:27;;;;;;;1.70;1.30;;;;;;;18.55;64.31;99824.08;129711;1273;114805;-68
2024/04/04 08:56:30;;;;;;;2.50;1.80;;;;;;;18.50;65.03;99826.33;129771;1263;114787;-67
2024/04/04 08:59:32;;;;;;;1.90;1.20;;;;;;;18.54;65.33;99829.59;129798;1262;114738;-67
2024/04/04 09:02:34;;;;;;;2.10;1.20;;;;;;;18.56;65.44;99830.36;129765;1264;114750;-68
2024/04/04 09:05:41;;;;;;;2.60;1.30;;;;;;;18.58;65.86;99828.77;129727;1265;115130;-67
2024/04/04 09:08:44;;;;;;;2.80;1.70;;;;;;;18.59;66.04;99830.02;129542;1267;114875;-68
2024/04/04 09:11:46;;;;;;;2.40;1.70;;;;;;;18.65;66.13;99833.88;129738;1274;114797;-68
2024/04/04 09:15:01;;;;;;;3.60;1.50;;;;;;;18.65;66.24;99834.58;129857;1274;114784;-68
2024/04/04 09:18:06;;;;;;;2.60;1.20;;;;;;;18.54;65.95;99837.76;129627;1270;114739;-67
2024/04/04 09:21:08;;;;;;;3.50;1.60;;;;;;;18.37;65.79;99840.66;129772;1274;114832;-66
2024/04/04 09:24:14;;;;;;;1.80;1.20;;;;;;;18.18;65.96;99841.84;129841;1264;114784;-69
2024/04/04 09:27:20;;;;;;;2.20;1.20;;;;;;;18.01;66.35;99840.98;129666;1261;127694;-66
2024/04/04 09:30:24;;;;;;;1.80;1.00;;;;;;;17.98;66.72;99839.62;129663;1265;114798;-67
2024/04/04 09:33:27;;;;;;;2.20;1.30;;;;;;;18.06;66.93;99836.09;129804;1263;115418;-67
2024/04/04 09:36:31;;;;;;;2.20;1.50;;;;;;;18.15;66.79;99833.95;129547;1266;114938;-69
2024/04/04 09:39:32;;;;;;;2.50;1.50;;;;;;;18.17;66.53;99833.77;129725;1261;114805;-68
2024/04/04 09:42:36;;;;;;;2.50;1.60;;;;;;;18.15;66.29;99833.98;129790;1259;114756;-65
2024/04/04 09:45:41;;;;;;;3.30;1.80;;;;;;;18.18;66.39;99832.44;129761;1262;116043;-66
2024/04/04 09:48:46;;;;;;;6.30;1.80;;;;;;;18.31;66.51;99828.18;129972;1259;115143;-67
2024/04/04 09:51:50;;;;;;;3.00;1.60;;;;;;;18.51;66.26;99832.95;129499;1270;115818;-67
2024/04/04 09:54:53;;;;;;;4.20;1.80;;;;;;;18.63;65.65;99830.98;129595;1267;116300;-67
2024/04/04 09:57:56;;;;;;;1.80;1.50;;;;;;;18.72;65.30;99831.79;129640;1266;127914;-67
2024/04/04 10:01:27;;;;;;;4.30;1.90;;;;;;;18.89;65.55;99827.33;129677;1265;114685;-66
2024/04/04 10:04:35;;;;;;;3.00;2.00;;;;;;;19.17;64.98;99817.77;129801;1275;114940;-67
2024/04/04 10:07:37;;;;;;;3.20;2.70;;;;;;;19.30;64.66;99813.82;129888;1259;115524;-61
2024/04/04 10:10:46;;;;;;;4.80;1.90;;;;;;;19.42;64.40;99815.44;129489;1258;114741;-67
2024/04/04 10:13:52;;;;;;;3.40;1.90;;;;;;;19.52;64.04;99817.56;129713;1259;129159;-65
2024/04/04 10:16:54;;;;;;;2.30;1.60;;;;;;;19.67;63.70;99815.04;129749;1263;114753;-63
2024/04/04 10:19:56;;;;;;;2.50;1.20;;;;;;;19.86;63.44;99813.08;129364;1275;114822;-62
2024/04/04 10:22:58;;;;;;;3.50;1.80;;;;;;;20.00;63.09;99816.05;129558;1281;114784;-62
2024/04/04 10:26:07;;;;;;;2.20;1.40;;;;;;;20.07;62.50;99810.38;129437;1259;115178;-63
2024/04/04 10:29:12;;;;;;;2.90;2.00;;;;;;;20.05;61.73;99809.07;129263;1281;115003;-64
2024/04/04 10:32:15;;;;;;;2.50;2.00;;;;;;;20.12;61.29;99805.30;129376;1260;128280;-63
2024/04/04 10:35:17;;;;;;;2.70;1.80;;;;;;;20.19;61.25;99808.60;129386;1265;114762;-63
2024/04/04 10:38:18;;;;;;;2.80;1.60;;;;;;;20.32;61.07;99807.54;129394;1275;115412;-62
2024/04/04 10:41:20;;;;;;;2.70;1.80;;;;;;;20.38;60.46;99809.70;129363;1265;115115;-62
2024/04/04 10:44:22;;;;;;;3.80;1.60;;;;;;;20.46;60.24;99811.44;129191;1274;114815;-63
2024/04/04 10:47:25;;;;;;;2.50;1.10;;;;;;;20.46;59.15;99808.47;129387;1264;115225;-63
2024/04/04 10:50:29;;;;;;;1.80;1.00;;;;;;;20.45;59.03;99809.91;129207;1264;115193;-65
2024/04/04 10:53:31;;;;;;;;;;;;;;;20.48;58.72;99807.73;129375;1281;129025;-63
2024/04/04 10:56:33;;;;;;;2.50;1.60;;;;;;;20.50;58.33;99805.45;129496;1263;114797;-62
2024/04/04 10:59:35;;;;;;;2.30;1.20;;;;;;;20.50;58.24;99800.84;129552;1265;114772;-63
2024/04/04 11:02:37;;;;;;;2.20;1.20;;;;;;;20.69;58.06;99796.44;129265;1280;114792;-63
2024/04/04 11:05:40;;;;;;;2.20;1.60;;;;;;;20.84;57.76;99785.92;129416;1281;116445;-63
2024/04/04 11:08:46;;;;;;;2.10;1.10;;;;;;;21.00;57.64;99782.46;129504;1281;115115;-63
2024/04/04 11:11:56;;;;;;;4.20;2.30;;;;;;;21.06;57.51;99774.01;129242;1267;127989;-63
2024/04/04 11:15:01;;;;;;;2.90;1.30;;;;;;;21.12;56.70;99766.55;129398;1260;114761;-63
2024/04/04 11:18:03;;;;;;;2.20;1.10;;;;;;;21.15;56.18;99757.39;129144;1266;115029;-63
2024/04/04 11:21:07;;;;;;;2.70;0.90;;;;;;;21.14;56.22;99752.89;129396;1277;114823;-63
2024/04/04 11:24:09;;;;;;;2.00;0.80;;;;;;;21.10;55.32;99752.95;129267;1275;114869;-63
2024/04/04 11:27:11;;;;;;;1.50;0.60;;;;;;;20.96;54.92;99758.77;129324;1264;114838;-64
2024/04/04 11:30:14;;;;;;;1.10;0.60;;;;;;;20.87;54.91;99762.56;129343;1276;114754;-66
2024/04/04 11:33:16;;;;;;;2.00;0.80;;;;;;;20.80;54.90;99756.48;129597;1266;114840;-68
2024/04/04 11:36:18;;;;;;;1.60;1.00;;;;;;;20.75;54.68;99766.84;129958;1281;114749;-66
2024/04/04 11:39:20;;;;;;;1.50;0.70;;;;;;;20.71;54.54;99766.13;129960;1264;114756;-67
2024/04/04 11:42:22;;;;;;;1.80;0.90;;;;;;;20.76;54.64;99769.09;129864;1265;114791;-68
2024/04/04 11:45:24;;;;;;;1.50;0.60;;;;;;;20.76;53.76;99769.39;129374;1277;115366;-70
2024/04/04 11:48:26;;;;;;;3.20;0.70;;;;;;;20.77;53.74;99761.55;130095;1265;114762;-69
2024/04/04 11:51:28;;;;;;;2.50;0.80;;;;;;;20.84;53.64;99766.88;129862;1263;128807;-69
2024/04/04 11:54:33;;;;;;;2.60;1.20;;;;;;;20.83;53.13;99762.41;129856;1265;114752;-69
2024/04/04 11:57:34;;;;;;;2.40;0.70;;;;;;;20.77;53.15;99755.34;129868;1281;114760;-70
2024/04/04 12:00:37;;;;;;;1.80;0.70;;;;;;;20.71;53.52;99750.12;129924;1263;114698;-69
2024/04/04 12:03:38;;;;;;;1.10;0.50;;;;;;;20.71;53.24;99745.82;129911;1264;114845;-69
2024/04/04 12:06:40;;;;;;;3.00;0.90;;;;;;;20.65;53.27;99737.27;129843;1261;115370;-68
2024/04/04 12:09:42;;;;;;;1.20;1.00;;;;;;;20.64;53.38;99741.40;129785;1265;114771;-69
2024/04/04 12:12:44;;;;;;;0.80;0.50;;;;;;;20.57;52.83;99737.05;129854;1265;114795;-68
2024/04/04 12:15:49;;;;;;;1.60;0.90;;;;;;;20.45;53.02;99736.42;129663;1281;116346;-69
2024/04/04 12:22:13;;;;;;;2.50;0.90;;;;;;;20.25;52.76;99726.63;129585;1265;115657;-68
2024/04/04 12:25:18;;;;;;;2.30;0.80;;;;;;;20.25;53.28;99722.77;129777;1281;115277;-69
2024/04/04 12:28:20;;;;;;;0.70;0.30;;;;;;;20.37;53.30;99721.21;129625;1269;128292;-70
2024/04/04 12:31:22;;;;;;;2.90;0.80;;;;;;;20.53;52.83;99712.97;129786;1264;114911;-70
2024/04/04 12:34:25;;;;;;;1.50;0.80;;;;;;;20.72;52.54;99711.99;129865;1281;114755;-70
2024/04/04 12:37:27;;;;;;;1.60;0.60;;;;;;;20.84;52.17;99707.63;129787;1266;115009;-70
2024/04/04 12:40:29;;;;;;;0.90;0.50;;;;;;;20.98;52.05;99704.74;129823;1263;115355;-70
2024/04/04 12:43:31;;;;;;;1.20;0.70;;;;;;;21.12;51.31;99696.86;130026;1265;114789;-66
2024/04/04 12:46:34;;;;;;;1.20;0.70;;;;;;;21.12;50.68;99694.96;129975;1259;115352;-66
2024/04/04 12:49:36;;;;;;;1.90;1.20;;;;;;;20.99;50.51;99691.44;129931;1265;128824;-67
2024/04/04 12:52:38;;;;;;;1.70;1.00;;;;;;;20.94;50.55;99695.89;129913;1261;114814;-70
2024/04/04 12:55:40;;;;;;;1.20;0.80;;;;;;;20.97;50.27;99693.25;129900;1265;114845;-69
2024/04/04 12:58:42;;;;;;;1.10;0.70;;;;;;;21.05;49.92;99690.76;129765;1259;114800;-66
2024/04/04 13:01:46;;;;;;;2.20;0.80;;;;;;;21.14;49.76;99686.60;129758;1265;114758;-68
2024/04/04 13:04:48;;;;;;;1.50;0.60;;;;;;;21.24;49.29;99693.89;129792;1265;114746;-69
2024/04/04 13:07:50;;;;;;;1.80;0.90;;;;;;;21.21;48.17;99698.39;129810;1264;114765;-68
2024/04/04 13:10:52;;;;;;;1.50;0.80;;;;;;;21.17;48.50;99694.45;129853;1265;128606;-68
2024/04/04 13:13:55;;;;;;;1.50;0.70;;;;;;;21.16;48.20;99683.89;129396;1259;115153;-69
2024/04/04 13:16:57;;;;;;;1.40;0.90;;;;;;;21.14;48.35;99680.23;129965;1277;114751;-68
2024/04/04 13:19:59;;;;;;;0.90;0.60;;;;;;;21.15;47.81;99680.00;129956;1280;114749;-68
2024/04/04 13:23:02;;;;;;;1.50;0.60;;;;;;;21.15;47.61;99680.89;129609;1268;114920;-69
2024/04/04 13:26:04;;;;;;;0.90;0.50;;;;;;;21.13;47.23;99676.58;129958;1265;114720;-70
2024/04/04 13:29:06;;;;;;;1.10;0.50;;;;;;;21.08;46.88;99677.02;129880;1264;115096;-70
2024/04/04 13:32:08;;;;;;;5.10;0.80;;;;;;;21.02;46.84;99682.05;129850;1259;114830;-70
2024/04/04 13:35:09;;;;;;;3.10;0.40;;;;;;;20.98;46.96;99677.02;129583;1281;114849;-69
2024/04/04 13:38:11;;;;;;;1.40;0.60;;;;;;;21.03;46.66;99675.63;129726;1263;114836;-69
2024/04/04 13:41:13;;;;;;;1.20;0.70;;;;;;;21.05;46.35;99672.64;129822;1259;114708;-69
2024/04/04 13:44:18;;;;;;;2.70;0.80;;;;;;;21.04;46.23;99666.98;129799;1263;114829;-69
2024/04/04 13:47:20;;;;;;;1.60;0.80;;;;;;;21.03;46.44;99666.41;129620;1259;114878;-70
2024/04/04 13:50:22;;;;;;;3.00;1.50;;;;;;;21.01;46.18;99668.73;129931;1281;114765;-68
2024/04/04 13:53:24;;;;;;;2.10;0.80;;;;;;;20.95;46.06;99664.96;129936;1259;114764;-69
2024/04/04 13:56:26;;;;;;;3.10;0.80;;;;;;;20.94;45.77;99656.92;129863;1264;114786;-69
2024/04/04 13:59:28;;;;;;;2.00;1.10;;;;;;;21.00;45.78;99657.20;129939;1264;114893;-70
2024/04/04 14:02:30;;;;;;;4.80;1.90;;;;;;;21.10;45.70;99652.55;129816;1259;114791;-69
2024/04/04 14:05:32;;;;;;;4.40;1.30;;;;;;;21.24;45.67;99654.92;129603;1274;115389;-69
2024/04/04 14:08:34;;;;;;;2.90;1.80;;;;;;;21.38;45.67;99647.05;129754;1274;114728;-69
2024/04/04 14:11:36;;;;;;;2.00;0.80;;;;;;;21.46;45.38;99643.48;129646;1259;227444;-70
2024/04/04 14:14:38;;;;;;;2.40;1.20;;;;;;;21.45;45.31;99641.30;129800;1263;128831;-69
2024/04/04 14:17:40;;;;;;;1.90;0.70;;;;;;;21.41;45.36;99641.70;129744;1281;114842;-69
2024/04/04 14:20:42;;;;;;;2.20;0.90;;;;;;;21.35;45.51;99641.94;129940;1276;114836;-64
2024/04/04 14:23:44;;;;;;;5.10;0.70;;;;;;;21.22;45.48;99644.92;129799;1265;114877;-69
2024/04/04 14:26:47;;;;;;;1.60;0.70;;;;;;;21.11;45.39;99645.15;129702;1267;114786;-69
2024/04/04 14:29:50;;;;;;;1.50;0.60;;;;;;;21.02;45.39;99648.35;129930;1281;114792;-69
2024/04/04 14:32:52;;;;;;;2.40;0.50;;;;;;;20.90;45.29;99642.94;129885;1265;114760;-68
2024/04/04 14:35:54;;;;;;;1.80;0.40;;;;;;;20.81;45.13;99642.30;129251;1266;127946;-68
2024/04/04 14:38:55;;;;;;;1.80;0.50;;;;;;;20.72;45.21;99639.36;129883;1265;114765;-69
2024/04/04 14:41:57;;;;;;;1.20;0.40;;;;;;;20.64;45.21;99639.41;129832;1281;114822;-68
2024/04/04 14:44:59;;;;;;;1.40;0.70;;;;;;;20.58;45.35;99639.13;129171;1276;114934;-68
2024/04/04 14:48:02;;;;;;;1.60;0.50;;;;;;;20.53;45.48;99642.23;129895;1264;115365;-68
2024/04/04 14:51:04;;;;;;;1.50;0.50;;;;;;;20.44;45.43;99639.66;129811;1263;115738;-69
2024/04/04 14:54:06;;;;;;;2.80;0.60;;;;;;;20.36;45.69;99640.67;129844;1265;114744;-69
2024/04/04 14:57:10;;;;;;;2.20;0.40;;;;;;;20.28;45.60;99640.02;129929;1264;129057;-70
2024/04/04 15:00:14;;;;;;;2.10;0.60;;;;;;;20.17;45.66;99637.33;129981;1277;114734;-69
2024/04/04 15:03:18;;;;;;;3.30;0.60;;;;;;;20.07;45.66;99635.74;130063;1281;115433;-69
2024/04/04 15:06:20;;;;;;;2.20;0.40;;;;;;;20.01;45.78;99627.86;129783;1261;114804;-69
2024/04/04 15:09:22;;;;;;;1.40;0.40;;;;;;;19.91;45.84;99623.88;129451;1263;114806;-69
2024/04/04 15:12:24;;;;;;;2.40;0.80;;;;;;;19.86;46.00;99620.26;129939;1281;114766;-69
2024/04/04 15:15:26;;;;;;;2.40;0.60;;;;;;;19.84;46.41;99614.59;129606;1281;127911;-65
2024/04/04 15:18:28;;;;;;;2.50;0.60;;;;;;;19.83;46.51;99611.30;129842;1263;114813;-66
2024/04/04 15:21:30;;;;;;;2.30;0.60;;;;;;;19.76;46.48;99612.71;129973;1264;114791;-69
2024/04/04 15:24:32;;;;;;;2.10;0.70;;;;;;;19.68;46.70;99608.58;129688;1265;115213;-69